sensor_id;sensor_type;location;lat;lon;timestamp;pressure;altitude;pressure_sealevel;temperature;humidity
75208;BME280;63795;55.684;37.864;2023-08-20T00:04:44;100285.00;;;21.77;65.21
75208;BME280;63795;55.684;37.864;2023-08-20T00:09:46;100275.06;;;21.78;65.24
75208;BME280;63795;55.684;37.864;2023-08-20T00:14:53;100277.16;;;21.77;66.06
75208;BME280;63795;55.684;37.864;2023-08-20T00:19:55;100276.16;;;21.71;66.35
75208;BME280;63795;55.684;37.864;2023-08-20T00:24:55;100272.28;;;21.65;65.93
75208;BME280;63795;55.684;37.864;2023-08-20T00:29:56;100255.53;;;21.51;66.87
75208;BME280;63795;55.684;37.864;2023-08-20T00:34:57;100249.91;;;21.48;66.19
75208;BME280;63795;55.684;37.864;2023-08-20T00:39:57;100245.38;;;21.47;66.71
75208;BME280;63795;55.684;37.864;2023-08-20T00:44:58;100241.84;;;21.43;67.23
75208;BME280;63795;55.684;37.864;2023-08-20T00:49:59;100225.31;;;21.34;65.57
75208;BME280;63795;55.684;37.864;2023-08-20T00:55:00;100219.31;;;21.29;67.73
75208;BME280;63795;55.684;37.864;2023-08-20T01:00:04;100212.53;;;21.23;68.15
75208;BME280;63795;55.684;37.864;2023-08-20T01:05:11;100205.34;;;21.18;68.74
75208;BME280;63795;55.684;37.864;2023-08-20T01:15:15;100207.00;;;21.06;68.35
75208;BME280;63795;55.684;37.864;2023-08-20T01:20:16;100216.25;;;21.01;69.14
75208;BME280;63795;55.684;37.864;2023-08-20T01:30:43;100209.13;;;20.93;70.03
75208;BME280;63795;55.684;37.864;2023-08-20T01:35:44;100210.88;;;20.91;69.70
75208;BME280;63795;55.684;37.864;2023-08-20T01:40:45;100213.25;;;20.92;69.66
75208;BME280;63795;55.684;37.864;2023-08-20T01:45:45;100214.22;;;20.89;69.50
75208;BME280;63795;55.684;37.864;2023-08-20T01:50:46;100206.50;;;20.86;70.86
75208;BME280;63795;55.684;37.864;2023-08-20T01:55:47;100216.44;;;20.85;70.83
75208;BME280;63795;55.684;37.864;2023-08-20T02:00:47;100218.97;;;20.83;70.85
75208;BME280;63795;55.684;37.864;2023-08-20T02:05:48;100220.72;;;20.81;71.51
75208;BME280;63795;55.684;37.864;2023-08-20T02:10:48;100222.78;;;20.80;71.37
75208;BME280;63795;55.684;37.864;2023-08-20T02:15:59;100218.63;;;20.81;71.54
75208;BME280;63795;55.684;37.864;2023-08-20T02:20:59;100225.66;;;20.80;71.21
75208;BME280;63795;55.684;37.864;2023-08-20T02:26:00;100225.94;;;20.73;70.45
75208;BME280;63795;55.684;37.864;2023-08-20T02:31:04;100225.50;;;20.62;70.55
75208;BME280;63795;55.684;37.864;2023-08-20T02:36:05;100229.34;;;20.59;72.62
75208;BME280;63795;55.684;37.864;2023-08-20T02:41:05;100233.38;;;20.62;72.64
75208;BME280;63795;55.684;37.864;2023-08-20T02:46:06;100213.06;;;20.65;70.38
75208;BME280;63795;55.684;37.864;2023-08-20T02:51:06;100199.66;;;20.71;69.93
75208;BME280;63795;55.684;37.864;2023-08-20T02:56:06;100198.81;;;20.83;70.97
75208;BME280;63795;55.684;37.864;2023-08-20T03:01:17;100209.72;;;20.88;68.71
75208;BME280;63795;55.684;37.864;2023-08-20T03:06:18;100204.63;;;20.92;69.42
75208;BME280;63795;55.684;37.864;2023-08-20T03:11:19;100192.31;;;20.92;68.98
75208;BME280;63795;55.684;37.864;2023-08-20T03:16:19;100209.59;;;20.92;69.11
75208;BME280;63795;55.684;37.864;2023-08-20T03:21:19;100204.50;;;20.96;69.92
75208;BME280;63795;55.684;37.864;2023-08-20T03:26:20;100208.63;;;21.07;69.56
75208;BME280;63795;55.684;37.864;2023-08-20T03:31:20;100215.25;;;21.17;69.79
75208;BME280;63795;55.684;37.864;2023-08-20T03:36:21;100228.59;;;21.24;71.74
75208;BME280;63795;55.684;37.864;2023-08-20T03:41:21;100242.34;;;21.20;70.69
75208;BME280;63795;55.684;37.864;2023-08-20T03:46:22;100231.16;;;21.22;69.89
75208;BME280;63795;55.684;37.864;2023-08-20T03:51:22;100247.72;;;21.30;70.89
75208;BME280;63795;55.684;37.864;2023-08-20T03:56:23;100243.19;;;21.29;72.39
75208;BME280;63795;55.684;37.864;2023-08-20T04:01:23;100221.00;;;21.17;72.49
75208;BME280;63795;55.684;37.864;2023-08-20T04:06:23;100228.69;;;20.98;74.26
75208;BME280;63795;55.684;37.864;2023-08-20T04:11:24;100227.75;;;20.80;73.87
75208;BME280;63795;55.684;37.864;2023-08-20T04:16:24;100217.81;;;20.59;78.81
75208;BME280;63795;55.684;37.864;2023-08-20T04:21:25;100212.16;;;20.34;77.96
75208;BME280;63795;55.684;37.864;2023-08-20T04:26:25;100215.03;;;20.09;79.38
75208;BME280;63795;55.684;37.864;2023-08-20T04:31:26;100189.25;;;19.93;77.81
75208;BME280;63795;55.684;37.864;2023-08-20T04:36:26;100154.75;;;19.80;80.47
75208;BME280;63795;55.684;37.864;2023-08-20T04:41:27;100137.53;;;19.68;81.46
75208;BME280;63795;55.684;37.864;2023-08-20T04:46:27;100178.34;;;19.63;81.02
75208;BME280;63795;55.684;37.864;2023-08-20T04:51:28;100172.72;;;19.72;80.93
75208;BME280;63795;55.684;37.864;2023-08-20T04:56:29;100187.47;;;19.74;78.21
75208;BME280;63795;55.684;37.864;2023-08-20T05:01:29;100185.13;;;19.81;79.45
75208;BME280;63795;55.684;37.864;2023-08-20T05:06:30;100194.09;;;19.96;80.28
75208;BME280;63795;55.684;37.864;2023-08-20T05:11:30;100189.25;;;20.05;79.18
75208;BME280;63795;55.684;37.864;2023-08-20T05:16:33;100180.34;;;20.12;78.52
75208;BME280;63795;55.684;37.864;2023-08-20T05:21:33;100187.06;;;20.22;78.94
75208;BME280;63795;55.684;37.864;2023-08-20T05:26:34;100185.88;;;20.32;77.84
75208;BME280;63795;55.684;37.864;2023-08-20T05:31:35;100180.22;;;20.28;78.52
75208;BME280;63795;55.684;37.864;2023-08-20T05:36:35;100167.66;;;20.35;78.31
75208;BME280;63795;55.684;37.864;2023-08-20T05:41:35;100157.50;;;20.43;78.70
75208;BME280;63795;55.684;37.864;2023-08-20T05:46:36;100144.63;;;20.57;79.50
75208;BME280;63795;55.684;37.864;2023-08-20T05:51:36;100138.34;;;20.71;78.18
75208;BME280;63795;55.684;37.864;2023-08-20T05:56:37;100138.75;;;20.82;77.18
75208;BME280;63795;55.684;37.864;2023-08-20T06:01:38;100142.81;;;20.93;77.26
75208;BME280;63795;55.684;37.864;2023-08-20T06:06:38;100137.00;;;21.06;77.04
75208;BME280;63795;55.684;37.864;2023-08-20T06:11:40;100124.53;;;21.09;77.54
75208;BME280;63795;55.684;37.864;2023-08-20T06:16:41;100120.56;;;21.15;78.16
75208;BME280;63795;55.684;37.864;2023-08-20T06:21:41;100112.84;;;21.12;76.75
75208;BME280;63795;55.684;37.864;2023-08-20T06:26:42;100119.81;;;21.24;76.29
75208;BME280;63795;55.684;37.864;2023-08-20T06:31:44;100113.25;;;21.33;76.02
75208;BME280;63795;55.684;37.864;2023-08-20T06:36:44;100112.22;;;21.48;75.25
75208;BME280;63795;55.684;37.864;2023-08-20T06:41:45;100108.69;;;22.11;74.73
75208;BME280;63795;55.684;37.864;2023-08-20T06:46:46;100103.41;;;23.42;71.89
75208;BME280;63795;55.684;37.864;2023-08-20T06:51:46;100103.78;;;24.38;67.40
75208;BME280;63795;55.684;37.864;2023-08-20T06:56:47;100102.19;;;24.90;67.19
75208;BME280;63795;55.684;37.864;2023-08-20T07:01:47;100104.59;;;25.50;64.04
75208;BME280;63795;55.684;37.864;2023-08-20T07:06:47;100101.13;;;25.66;63.09
75208;BME280;63795;55.684;37.864;2023-08-20T07:11:48;100116.91;;;25.45;61.93
75208;BME280;63795;55.684;37.864;2023-08-20T07:16:48;100105.16;;;25.40;62.12
75208;BME280;63795;55.684;37.864;2023-08-20T07:21:49;100103.78;;;25.20;63.71
75208;BME280;63795;55.684;37.864;2023-08-20T07:26:49;100103.38;;;25.27;61.30
75208;BME280;63795;55.684;37.864;2023-08-20T07:31:50;100106.50;;;25.53;61.24
75208;BME280;63795;55.684;37.864;2023-08-20T07:36:50;100099.41;;;25.74;61.18
75208;BME280;63795;55.684;37.864;2023-08-20T07:41:51;100100.91;;;25.70;60.58
75208;BME280;63795;55.684;37.864;2023-08-20T07:46:51;100091.53;;;25.60;60.54
75208;BME280;63795;55.684;37.864;2023-08-20T07:51:52;100085.25;;;25.33;59.67
75208;BME280;63795;55.684;37.864;2023-08-20T07:56:52;100076.19;;;25.10;59.03
75208;BME280;63795;55.684;37.864;2023-08-20T08:01:53;100074.59;;;24.95;60.37
75208;BME280;63795;55.684;37.864;2023-08-20T08:06:53;100076.16;;;24.81;60.06
75208;BME280;63795;55.684;37.864;2023-08-20T08:11:54;100066.63;;;24.52;60.79
75208;BME280;63795;55.684;37.864;2023-08-20T08:16:55;100054.72;;;24.49;61.09
75208;BME280;63795;55.684;37.864;2023-08-20T08:21:56;100054.94;;;24.61;61.32
75208;BME280;63795;55.684;37.864;2023-08-20T08:26:56;100049.75;;;24.65;61.67
75208;BME280;63795;55.684;37.864;2023-08-20T08:31:57;100043.97;;;24.94;60.79
75208;BME280;63795;55.684;37.864;2023-08-20T08:36:57;100046.81;;;26.27;60.06
75208;BME280;63795;55.684;37.864;2023-08-20T08:42:01;100041.91;;;27.16;58.78
75208;BME280;63795;55.684;37.864;2023-08-20T08:47:04;100033.59;;;27.03;56.88
75208;BME280;63795;55.684;37.864;2023-08-20T08:52:05;100034.84;;;27.28;53.90
75208;BME280;63795;55.684;37.864;2023-08-20T08:57:06;100033.53;;;27.60;52.66
75208;BME280;63795;55.684;37.864;2023-08-20T09:02:11;100039.50;;;28.41;50.08
75208;BME280;63795;55.684;37.864;2023-08-20T09:07:13;100033.75;;;28.58;51.50
75208;BME280;63795;55.684;37.864;2023-08-20T09:12:20;100032.72;;;28.88;46.14
75208;BME280;63795;55.684;37.864;2023-08-20T09:17:25;100034.59;;;28.80;45.63
75208;BME280;63795;55.684;37.864;2023-08-20T09:22:26;100037.81;;;29.49;48.57
75208;BME280;63795;55.684;37.864;2023-08-20T09:27:27;100034.88;;;29.60;43.67
75208;BME280;63795;55.684;37.864;2023-08-20T09:32:27;100034.59;;;29.63;42.49
75208;BME280;63795;55.684;37.864;2023-08-20T09:37:28;100013.56;;;29.87;43.61
75208;BME280;63795;55.684;37.864;2023-08-20T09:42:29;100016.22;;;29.90;43.34
75208;BME280;63795;55.684;37.864;2023-08-20T09:47:35;99999.16;;;30.05;42.45
75208;BME280;63795;55.684;37.864;2023-08-20T09:52:40;99996.84;;;29.82;42.45
75208;BME280;63795;55.684;37.864;2023-08-20T09:57:42;99990.34;;;30.11;44.02
75208;BME280;63795;55.684;37.864;2023-08-20T10:02:44;99989.69;;;30.40;40.52
75208;BME280;63795;55.684;37.864;2023-08-20T10:07:45;99982.59;;;30.19;42.70
75208;BME280;63795;55.684;37.864;2023-08-20T10:12:46;99975.31;;;30.42;41.40
75208;BME280;63795;55.684;37.864;2023-08-20T10:17:49;99983.72;;;30.62;41.64
75208;BME280;63795;55.684;37.864;2023-08-20T10:22:50;99969.81;;;30.68;40.23
75208;BME280;63795;55.684;37.864;2023-08-20T10:27:52;99985.16;;;31.15;39.34
75208;BME280;63795;55.684;37.864;2023-08-20T10:32:57;99975.38;;;30.72;39.16
75208;BME280;63795;55.684;37.864;2023-08-20T10:38:11;99967.16;;;30.30;40.18
75208;BME280;63795;55.684;37.864;2023-08-20T10:48:32;99947.47;;;29.62;42.27
75208;BME280;63795;55.684;37.864;2023-08-20T10:53:36;99943.72;;;29.67;42.52
75208;BME280;63795;55.684;37.864;2023-08-20T10:58:38;99934.75;;;29.42;42.22
75208;BME280;63795;55.684;37.864;2023-08-20T11:03:39;99932.16;;;29.00;43.44
75208;BME280;63795;55.684;37.864;2023-08-20T11:08:39;99921.03;;;28.71;43.67
75208;BME280;63795;55.684;37.864;2023-08-20T11:13:41;99932.69;;;28.71;43.53
75208;BME280;63795;55.684;37.864;2023-08-20T11:18:43;99934.22;;;28.50;44.38
75208;BME280;63795;55.684;37.864;2023-08-20T11:23:43;99914.59;;;28.28;44.98
75208;BME280;63795;55.684;37.864;2023-08-20T11:28:47;99908.22;;;28.13;45.36
75208;BME280;63795;55.684;37.864;2023-08-20T11:33:49;99898.84;;;27.93;46.44
75208;BME280;63795;55.684;37.864;2023-08-20T11:38:50;99888.47;;;27.75;46.65
75208;BME280;63795;55.684;37.864;2023-08-20T11:43:52;99878.06;;;27.57;47.30
75208;BME280;63795;55.684;37.864;2023-08-20T11:54:01;99871.91;;;27.50;47.36
75208;BME280;63795;55.684;37.864;2023-08-20T11:59:01;99870.06;;;27.41;47.69
75208;BME280;63795;55.684;37.864;2023-08-20T12:04:07;99859.19;;;27.42;47.63
75208;BME280;63795;55.684;37.864;2023-08-20T12:09:21;99869.53;;;27.43;47.99
75208;BME280;63795;55.684;37.864;2023-08-20T12:14:22;99881.44;;;27.39;48.46
75208;BME280;63795;55.684;37.864;2023-08-20T12:19:22;99879.22;;;27.29;48.68
75208;BME280;63795;55.684;37.864;2023-08-20T12:24:23;99865.72;;;26.83;49.66
75208;BME280;63795;55.684;37.864;2023-08-20T12:29:23;99874.25;;;26.30;49.93
75208;BME280;63795;55.684;37.864;2023-08-20T12:34:24;99886.06;;;25.75;51.04
75208;BME280;63795;55.684;37.864;2023-08-20T12:39:26;99891.75;;;25.44;51.57
75208;BME280;63795;55.684;37.864;2023-08-20T12:44:26;99902.69;;;25.00;53.21
75208;BME280;63795;55.684;37.864;2023-08-20T12:49:27;99937.66;;;24.76;54.42
75208;BME280;63795;55.684;37.864;2023-08-20T12:54:27;99991.16;;;24.46;55.47
75208;BME280;63795;55.684;37.864;2023-08-20T12:59:28;99983.31;;;23.61;58.00
75208;BME280;63795;55.684;37.864;2023-08-20T13:04:29;99977.97;;;23.12;59.73
75208;BME280;63795;55.684;37.864;2023-08-20T13:09:29;99965.81;;;22.99;58.78
75208;BME280;63795;55.684;37.864;2023-08-20T13:14:30;99948.03;;;22.92;58.61
75208;BME280;63795;55.684;37.864;2023-08-20T13:19:31;99921.50;;;22.93;62.89
75208;BME280;63795;55.684;37.864;2023-08-20T13:24:31;99920.09;;;22.89;63.30
75208;BME280;63795;55.684;37.864;2023-08-20T13:29:32;99901.25;;;22.69;63.59
75208;BME280;63795;55.684;37.864;2023-08-20T13:34:32;99895.03;;;22.95;61.26
75208;BME280;63795;55.684;37.864;2023-08-20T13:39:33;99884.91;;;23.14;61.36
75208;BME280;63795;55.684;37.864;2023-08-20T13:44:33;99881.78;;;23.03;64.45
75208;BME280;63795;55.684;37.864;2023-08-20T13:49:33;99869.78;;;22.95;62.98
75208;BME280;63795;55.684;37.864;2023-08-20T13:54:35;99869.59;;;23.22;63.05
75208;BME280;63795;55.684;37.864;2023-08-20T13:59:35;99869.66;;;23.13;65.64
75208;BME280;63795;55.684;37.864;2023-08-20T14:04:35;99863.63;;;23.02;64.01
75208;BME280;63795;55.684;37.864;2023-08-20T14:09:37;99864.75;;;23.28;63.10
75208;BME280;63795;55.684;37.864;2023-08-20T14:14:39;99854.25;;;23.31;63.71
75208;BME280;63795;55.684;37.864;2023-08-20T14:19:40;99847.81;;;23.36;66.26
75208;BME280;63795;55.684;37.864;2023-08-20T14:24:40;99856.41;;;23.21;66.89
75208;BME280;63795;55.684;37.864;2023-08-20T14:29:41;99855.81;;;23.17;67.51
75208;BME280;63795;55.684;37.864;2023-08-20T14:34:42;99844.19;;;23.03;67.95
75208;BME280;63795;55.684;37.864;2023-08-20T14:39:45;99834.91;;;22.99;67.97
75208;BME280;63795;55.684;37.864;2023-08-20T14:44:45;99829.84;;;23.08;69.33
75208;BME280;63795;55.684;37.864;2023-08-20T14:49:46;99827.16;;;23.05;67.21
75208;BME280;63795;55.684;37.864;2023-08-20T14:54:46;99823.88;;;23.12;69.48
75208;BME280;63795;55.684;37.864;2023-08-20T14:59:47;99836.78;;;23.02;70.25
75208;BME280;63795;55.684;37.864;2023-08-20T15:04:47;99819.38;;;22.87;69.60
75208;BME280;63795;55.684;37.864;2023-08-20T15:09:48;99826.28;;;22.90;68.86
75208;BME280;63795;55.684;37.864;2023-08-20T15:14:48;99823.66;;;23.01;67.62
75208;BME280;63795;55.684;37.864;2023-08-20T15:19:49;99816.25;;;23.00;69.96
75208;BME280;63795;55.684;37.864;2023-08-20T15:24:49;99812.97;;;22.83;70.21
75208;BME280;63795;55.684;37.864;2023-08-20T15:29:51;99820.81;;;22.92;70.01
75208;BME280;63795;55.684;37.864;2023-08-20T15:34:51;99826.47;;;22.86;67.73
75208;BME280;63795;55.684;37.864;2023-08-20T15:39:52;99834.66;;;22.88;67.70
75208;BME280;63795;55.684;37.864;2023-08-20T15:44:52;99843.31;;;22.88;67.71
75208;BME280;63795;55.684;37.864;2023-08-20T15:49:53;99838.34;;;22.88;70.94
75208;BME280;63795;55.684;37.864;2023-08-20T15:54:53;99843.31;;;22.88;70.86
75208;BME280;63795;55.684;37.864;2023-08-20T15:59:54;99838.69;;;22.81;70.08
75208;BME280;63795;55.684;37.864;2023-08-20T16:04:54;99841.78;;;22.77;70.10
75208;BME280;63795;55.684;37.864;2023-08-20T16:09:55;99845.88;;;22.62;70.96
75208;BME280;63795;55.684;37.864;2023-08-20T16:14:55;99843.31;;;22.55;70.92
75208;BME280;63795;55.684;37.864;2023-08-20T16:19:56;99842.25;;;22.43;72.85
75208;BME280;63795;55.684;37.864;2023-08-20T16:24:59;99855.31;;;22.30;74.45
75208;BME280;63795;55.684;37.864;2023-08-20T16:29:59;99853.63;;;22.05;71.49
75208;BME280;63795;55.684;37.864;2023-08-20T16:35:00;99863.56;;;22.04;72.12
75208;BME280;63795;55.684;37.864;2023-08-20T16:40:01;99862.63;;;21.98;73.23
75208;BME280;63795;55.684;37.864;2023-08-20T16:45:05;99857.63;;;21.98;71.68
75208;BME280;63795;55.684;37.864;2023-08-20T16:50:06;99867.13;;;21.90;72.58
75208;BME280;63795;55.684;37.864;2023-08-20T16:55:07;99870.84;;;21.81;71.31
75208;BME280;63795;55.684;37.864;2023-08-20T17:00:08;99872.59;;;21.70;72.17
75208;BME280;63795;55.684;37.864;2023-08-20T17:05:08;99882.53;;;21.60;71.62
75208;BME280;63795;55.684;37.864;2023-08-20T17:10:09;99880.28;;;21.55;72.79
75208;BME280;63795;55.684;37.864;2023-08-20T17:15:09;99889.25;;;21.57;72.21
75208;BME280;63795;55.684;37.864;2023-08-20T17:20:11;99888.31;;;21.42;71.91
75208;BME280;63795;55.684;37.864;2023-08-20T17:25:11;99903.19;;;21.31;72.75
75208;BME280;63795;55.684;37.864;2023-08-20T17:30:12;99913.88;;;21.12;71.62
75208;BME280;63795;55.684;37.864;2023-08-20T17:35:13;99912.59;;;21.04;72.91
75208;BME280;63795;55.684;37.864;2023-08-20T17:40:13;99917.56;;;21.04;71.56
75208;BME280;63795;55.684;37.864;2023-08-20T17:45:14;99934.66;;;20.98;71.81
75208;BME280;63795;55.684;37.864;2023-08-20T17:50:14;99940.72;;;20.91;71.98
75208;BME280;63795;55.684;37.864;2023-08-20T17:55:15;99929.03;;;20.86;71.50
75208;BME280;63795;55.684;37.864;2023-08-20T18:00:15;99922.22;;;20.62;71.49
75208;BME280;63795;55.684;37.864;2023-08-20T18:05:17;99925.09;;;20.31;71.81
75208;BME280;63795;55.684;37.864;2023-08-20T18:10:18;99926.56;;;20.14;71.78
75208;BME280;63795;55.684;37.864;2023-08-20T18:15:21;99918.28;;;20.16;72.42
75208;BME280;63795;55.684;37.864;2023-08-20T18:20:22;99925.91;;;20.10;71.87
75208;BME280;63795;55.684;37.864;2023-08-20T18:25:22;99924.63;;;20.11;71.73
75208;BME280;63795;55.684;37.864;2023-08-20T18:30:23;99937.56;;;19.85;72.58
75208;BME280;63795;55.684;37.864;2023-08-20T18:35:23;99938.50;;;19.82;72.60
75208;BME280;63795;55.684;37.864;2023-08-20T18:40:24;99932.31;;;19.71;71.29
75208;BME280;63795;55.684;37.864;2023-08-20T18:45:27;99943.00;;;19.48;70.92
75208;BME280;63795;55.684;37.864;2023-08-20T18:50:28;99939.84;;;19.21;71.03
75208;BME280;63795;55.684;37.864;2023-08-20T18:55:28;99924.44;;;19.15;71.04
75208;BME280;63795;55.684;37.864;2023-08-20T19:00:29;99922.97;;;19.11;70.22
75208;BME280;63795;55.684;37.864;2023-08-20T19:05:29;99925.50;;;18.96;70.70
75208;BME280;63795;55.684;37.864;2023-08-20T19:10:30;99928.50;;;19.05;70.33
75208;BME280;63795;55.684;37.864;2023-08-20T19:15:46;99915.03;;;19.02;70.51
75208;BME280;63795;55.684;37.864;2023-08-20T19:20:51;99925.44;;;18.87;70.07
75208;BME280;63795;55.684;37.864;2023-08-20T19:25:52;99920.38;;;18.79;69.90
75208;BME280;63795;55.684;37.864;2023-08-20T19:30:54;99922.56;;;18.75;69.88
75208;BME280;63795;55.684;37.864;2023-08-20T19:35:55;99933.38;;;18.71;70.04
75208;BME280;63795;55.684;37.864;2023-08-20T19:40:55;99944.03;;;18.70;69.86
75208;BME280;63795;55.684;37.864;2023-08-20T19:45:56;99942.78;;;18.71;69.90
75208;BME280;63795;55.684;37.864;2023-08-20T19:50:56;99923.84;;;18.61;69.82
75208;BME280;63795;55.684;37.864;2023-08-20T19:55:57;99914.66;;;18.53;69.61
75208;BME280;63795;55.684;37.864;2023-08-20T20:00:58;99922.81;;;18.55;69.92
75208;BME280;63795;55.684;37.864;2023-08-20T20:05:59;99928.28;;;18.37;70.88
75208;BME280;63795;55.684;37.864;2023-08-20T20:10:59;99926.44;;;18.30;70.53
75208;BME280;63795;55.684;37.864;2023-08-20T20:16:00;99931.84;;;18.41;69.70
75208;BME280;63795;55.684;37.864;2023-08-20T20:21:00;99925.97;;;18.19;70.12
75208;BME280;63795;55.684;37.864;2023-08-20T20:26:05;99943.41;;;18.25;70.08
75208;BME280;63795;55.684;37.864;2023-08-20T20:31:06;99952.03;;;18.25;70.43
75208;BME280;63795;55.684;37.864;2023-08-20T20:36:06;99943.75;;;18.14;70.35
75208;BME280;63795;55.684;37.864;2023-08-20T20:41:07;99947.72;;;18.04;70.85
75208;BME280;63795;55.684;37.864;2023-08-20T20:46:08;99950.47;;;17.95;70.24
75208;BME280;63795;55.684;37.864;2023-08-20T20:51:09;99952.78;;;18.00;69.92
75208;BME280;63795;55.684;37.864;2023-08-20T20:56:09;99961.38;;;18.00;70.45
75208;BME280;63795;55.684;37.864;2023-08-20T21:01:10;99958.63;;;17.97;70.65
75208;BME280;63795;55.684;37.864;2023-08-20T21:06:10;99957.69;;;17.87;70.40
75208;BME280;63795;55.684;37.864;2023-08-20T21:11:11;99941.03;;;17.82;69.98
75208;BME280;63795;55.684;37.864;2023-08-20T21:16:11;99955.06;;;17.93;70.54
75208;BME280;63795;55.684;37.864;2023-08-20T21:21:12;99945.63;;;17.79;70.00
75208;BME280;63795;55.684;37.864;2023-08-20T21:26:13;99951.66;;;17.69;71.30
75208;BME280;63795;55.684;37.864;2023-08-20T21:31:13;99961.25;;;17.62;71.51
75208;BME280;63795;55.684;37.864;2023-08-20T21:36:14;99961.78;;;17.73;70.60
75208;BME280;63795;55.684;37.864;2023-08-20T21:41:14;99955.69;;;17.71;70.99
75208;BME280;63795;55.684;37.864;2023-08-20T21:46:15;99947.28;;;17.48;71.22
75208;BME280;63795;55.684;37.864;2023-08-20T21:51:16;99956.16;;;17.38;71.07
75208;BME280;63795;55.684;37.864;2023-08-20T21:56:16;99944.34;;;17.52;70.66
75208;BME280;63795;55.684;37.864;2023-08-20T22:01:17;99949.28;;;17.51;70.95
75208;BME280;63795;55.684;37.864;2023-08-20T22:06:17;99951.34;;;17.51;70.92
75208;BME280;63795;55.684;37.864;2023-08-20T22:11:18;99939.78;;;17.38;70.66
75208;BME280;63795;55.684;37.864;2023-08-20T22:16:18;99935.97;;;17.29;70.76
75208;BME280;63795;55.684;37.864;2023-08-20T22:21:19;99944.09;;;17.30;71.14
75208;BME280;63795;55.684;37.864;2023-08-20T22:26:19;99936.13;;;17.22;71.83
75208;BME280;63795;55.684;37.864;2023-08-20T22:31:20;99927.28;;;17.16;70.69
75208;BME280;63795;55.684;37.864;2023-08-20T22:36:21;99926.47;;;17.16;70.58
75208;BME280;63795;55.684;37.864;2023-08-20T22:41:22;99934.44;;;17.24;70.03
75208;BME280;63795;55.684;37.864;2023-08-20T22:46:22;99929.78;;;17.30;69.93
75208;BME280;63795;55.684;37.864;2023-08-20T22:51:23;99918.06;;;17.25;69.60
75208;BME280;63795;55.684;37.864;2023-08-20T22:56:23;99931.41;;;17.15;69.76
75208;BME280;63795;55.684;37.864;2023-08-20T23:01:24;99916.47;;;16.91;70.47
75208;BME280;63795;55.684;37.864;2023-08-20T23:06:24;99933.22;;;16.77;70.65
75208;BME280;63795;55.684;37.864;2023-08-20T23:11:25;99925.50;;;16.58;71.65
75208;BME280;63795;55.684;37.864;2023-08-20T23:16:26;99930.53;;;16.70;71.17
75208;BME280;63795;55.684;37.864;2023-08-20T23:21:26;99932.06;;;16.74;70.40
75208;BME280;63795;55.684;37.864;2023-08-20T23:26:27;99932.78;;;16.62;70.37
75208;BME280;63795;55.684;37.864;2023-08-20T23:31:27;99936.78;;;16.49;70.28
75208;BME280;63795;55.684;37.864;2023-08-20T23:36:28;99928.16;;;16.33;70.33
75208;BME280;63795;55.684;37.864;2023-08-20T23:41:28;99924.16;;;16.10;70.77
75208;BME280;63795;55.684;37.864;2023-08-20T23:46:29;99911.94;;;15.90;71.31
75208;BME280;63795;55.684;37.864;2023-08-20T23:51:29;99929.59;;;15.85;71.42
75208;BME280;63795;55.684;37.864;2023-08-20T23:56:30;99927.84;;;15.91;70.95
